createdAt,value
2017-05-28T00:01:44.339Z,6.40
2017-05-28T00:04:13.146Z,6.58
2017-05-28T00:06:41.987Z,5.08
2017-05-28T00:09:10.796Z,5.43
2017-05-28T00:11:39.607Z,5.37
2017-05-28T00:14:08.451Z,4.37
2017-05-28T00:16:36.904Z,4.55
2017-05-28T00:19:05.704Z,4.73
2017-05-28T00:21:34.615Z,5.23
2017-05-28T00:24:03.060Z,4.65
2017-05-28T00:26:31.870Z,4.90
2017-05-28T00:29:00.701Z,4.52
2017-05-28T00:31:29.536Z,4.43
2017-05-28T00:33:58.352Z,5.07
2017-05-28T00:36:27.163Z,4.73
2017-05-28T00:38:56.031Z,4.50
2017-05-28T00:41:24.482Z,4.25
2017-05-28T00:43:53.275Z,5.03
2017-05-28T00:46:22.127Z,4.67
2017-05-28T00:48:50.939Z,4.23
2017-05-28T00:51:19.747Z,4.93
2017-05-28T00:53:48.602Z,4.82
2017-05-28T00:56:17.412Z,4.55
2017-05-28T00:58:46.239Z,5.23
2017-05-28T01:01:15.074Z,4.92
2017-05-28T01:03:43.891Z,5.75
2017-05-28T01:06:12.329Z,5.42
2017-05-28T01:08:41.165Z,4.63
2017-05-28T01:11:09.966Z,5.25
2017-05-28T01:13:38.783Z,5.28
2017-05-28T01:16:07.627Z,5.17
2017-05-28T01:18:36.434Z,4.75
2017-05-28T01:21:05.259Z,4.65
2017-05-28T01:23:34.126Z,5.42
2017-05-28T01:26:02.952Z,5.17
2017-05-28T01:28:31.775Z,5.68
2017-05-28T01:31:00.603Z,4.13
2017-05-28T01:33:29.426Z,5.37
2017-05-28T01:35:58.240Z,4.60
2017-05-28T01:38:27.139Z,5.48
2017-05-28T01:40:55.951Z,5.13
2017-05-28T01:43:24.806Z,5.23
2017-05-28T01:45:53.658Z,5.47
2017-05-28T01:48:22.464Z,5.37
2017-05-28T01:50:51.279Z,4.75
2017-05-28T01:53:20.125Z,5.13
2017-05-28T01:55:48.943Z,5.10
2017-05-28T01:58:17.781Z,6.03
2017-05-28T02:00:46.623Z,5.00
2017-05-28T02:03:15.441Z,4.83
2017-05-28T02:05:44.285Z,4.83
2017-05-28T02:08:13.139Z,5.58
2017-05-28T02:10:41.974Z,5.02
2017-05-28T02:13:10.804Z,5.53
2017-05-28T02:15:38.880Z,5.22
2017-05-28T02:18:07.683Z,5.82
2017-05-28T02:20:36.536Z,5.60
2017-05-28T02:23:05.354Z,4.85
2017-05-28T02:25:34.166Z,5.70
2017-05-28T02:28:03.016Z,5.52
2017-05-28T02:30:31.855Z,4.80
2017-05-28T02:33:00.671Z,5.28
2017-05-28T02:35:29.508Z,5.43
2017-05-28T02:37:58.363Z,5.55
2017-05-28T02:40:27.188Z,5.17
2017-05-28T02:42:56.010Z,5.65
2017-05-28T02:45:24.870Z,5.55
2017-05-28T02:47:53.701Z,5.68
2017-05-28T02:50:22.512Z,5.67
2017-05-28T02:52:51.359Z,6.17
2017-05-28T02:55:20.987Z,6.03
2017-05-28T02:57:49.819Z,5.22
2017-05-28T03:00:18.653Z,5.42
2017-05-28T03:02:47.464Z,5.27
2017-05-28T03:05:16.328Z,5.58
2017-05-28T03:07:45.155Z,6.03
2017-05-28T03:10:13.979Z,6.37
2017-05-28T03:12:42.052Z,6.08
2017-05-28T03:15:10.879Z,5.85
2017-05-28T03:17:39.697Z,5.57
2017-05-28T03:20:08.536Z,5.75
2017-05-28T03:22:36.611Z,6.37
2017-05-28T03:25:05.432Z,6.03
2017-05-28T03:27:34.296Z,5.67
2017-05-28T03:30:03.097Z,5.40
2017-05-28T03:32:31.933Z,5.60
2017-05-28T03:35:00.779Z,5.73
2017-05-28T03:37:29.620Z,6.53
2017-05-28T03:39:58.901Z,6.15
2017-05-28T03:42:27.746Z,5.52
2017-05-28T03:44:56.660Z,6.00
2017-05-28T03:47:25.470Z,7.35
2017-05-28T03:49:53.539Z,6.08
2017-05-28T03:52:22.375Z,5.35
2017-05-28T03:54:51.232Z,5.63
2017-05-28T03:57:20.043Z,5.82
2017-05-28T03:59:48.935Z,6.13
2017-05-28T04:02:17.797Z,5.90
2017-05-28T04:04:46.626Z,5.45
2017-05-28T04:07:15.453Z,5.85
2017-05-28T04:09:43.538Z,5.77
2017-05-28T04:12:12.355Z,5.50
2017-05-28T04:14:40.395Z,5.62
2017-05-28T04:17:09.233Z,5.52
2017-05-28T04:19:38.064Z,5.53
2017-05-28T04:22:06.879Z,6.28
2017-05-28T04:24:35.724Z,5.57
2017-05-28T04:27:04.535Z,6.55
2017-05-28T04:29:33.381Z,6.47
2017-05-28T04:32:02.239Z,5.77
2017-05-28T04:34:31.063Z,5.78
2017-05-28T04:36:59.882Z,6.00
2017-05-28T04:39:28.719Z,5.57
2017-05-28T04:41:57.560Z,6.50
2017-05-28T04:44:26.399Z,5.88
2017-05-28T04:46:55.211Z,6.30
2017-05-28T04:49:24.056Z,5.88
2017-05-28T04:51:52.875Z,6.08
2017-05-28T04:54:21.703Z,5.65
2017-05-28T04:56:50.572Z,5.97
2017-05-28T04:59:19.398Z,5.45
2017-05-28T05:01:48.211Z,5.98
2017-05-28T05:04:17.057Z,5.93
2017-05-28T05:06:45.872Z,6.32
2017-05-28T05:09:14.708Z,6.80
2017-05-28T05:11:43.522Z,5.42
2017-05-28T05:14:12.372Z,6.37
2017-05-28T05:16:41.185Z,6.00
2017-05-28T05:19:10.013Z,5.65
2017-05-28T05:21:38.868Z,6.02
2017-05-28T05:24:07.737Z,6.07
2017-05-28T05:26:36.496Z,5.32
2017-05-28T05:29:05.337Z,5.62
2017-05-28T05:31:34.179Z,6.03
2017-05-28T05:34:03.037Z,6.30
2017-05-28T05:36:31.882Z,5.50
2017-05-28T05:39:00.708Z,5.73
2017-05-28T05:41:29.556Z,5.77
2017-05-28T05:43:58.367Z,6.10
2017-05-28T05:46:27.207Z,5.83
2017-05-28T05:48:56.042Z,6.57
2017-05-28T05:51:24.886Z,5.27
2017-05-28T05:53:53.804Z,6.08
2017-05-28T05:56:22.594Z,5.83
2017-05-28T05:58:51.432Z,6.30
2017-05-28T06:01:20.258Z,5.87
2017-05-28T06:03:49.071Z,5.38
2017-05-28T06:06:17.907Z,5.33
2017-05-28T06:08:45.977Z,6.62
2017-05-28T06:11:14.829Z,5.85
2017-05-28T06:13:43.645Z,5.68
2017-05-28T06:16:12.514Z,5.85
2017-05-28T06:18:41.327Z,6.17
2017-05-28T06:21:10.157Z,7.03
2017-05-28T06:23:39.127Z,7.17
2017-05-28T06:26:07.949Z,6.07
2017-05-28T06:28:36.799Z,6.73
2017-05-28T06:31:06.574Z,6.95
2017-05-28T06:33:35.450Z,6.33
2017-05-28T06:36:04.247Z,7.20
2017-05-28T06:38:33.103Z,7.00
2017-05-28T06:41:01.950Z,6.32
2017-05-28T06:43:30.777Z,6.28
2017-05-28T06:45:59.593Z,6.27
2017-05-28T06:48:28.420Z,5.77
2017-05-28T06:50:57.265Z,5.80
2017-05-28T06:53:26.110Z,6.38
2017-05-28T06:55:54.907Z,5.87
2017-05-28T06:58:23.775Z,5.00
2017-05-28T07:00:52.631Z,5.32
2017-05-28T07:03:21.454Z,5.17
2017-05-28T07:05:50.304Z,5.65
2017-05-28T07:08:19.110Z,4.70
2017-05-28T07:10:47.936Z,5.90
2017-05-28T07:13:16.795Z,4.40
2017-05-28T07:28:42.299Z,5.43
2017-05-28T07:31:11.151Z,6.33
2017-05-28T07:33:39.967Z,5.22
2017-05-28T07:36:08.779Z,5.25
2017-05-28T07:38:37.641Z,5.75
2017-05-28T07:41:06.477Z,5.00
2017-05-28T07:43:35.289Z,5.45
2017-05-28T07:46:04.116Z,5.45
2017-05-28T07:48:32.955Z,4.98
2017-05-28T07:51:01.776Z,5.68
2017-05-28T07:53:30.602Z,5.78
2017-05-28T07:55:59.443Z,4.68
2017-05-28T07:58:28.277Z,6.00
2017-05-28T08:00:57.098Z,5.40
2017-05-28T08:03:25.952Z,5.27
2017-05-28T08:05:54.764Z,5.52
2017-05-28T08:08:23.618Z,5.47
2017-05-28T08:10:52.437Z,5.07
2017-05-28T08:13:21.292Z,4.80
2017-05-28T08:15:50.122Z,5.80
2017-05-28T08:18:18.935Z,6.17
2017-05-28T08:20:47.772Z,5.55
2017-05-28T08:23:16.620Z,5.63
2017-05-28T08:25:45.462Z,5.23
2017-05-28T08:28:14.279Z,4.97
2017-05-28T08:30:43.126Z,5.55
2017-05-28T08:33:11.979Z,5.80
2017-05-28T08:35:40.783Z,5.25
2017-05-28T08:38:09.654Z,4.87
2017-05-28T08:40:38.466Z,4.77
2017-05-28T08:43:07.282Z,4.32
2017-05-28T08:45:36.236Z,4.60
2017-05-28T08:48:05.068Z,4.37
2017-05-28T08:50:33.915Z,4.48
2017-05-28T08:53:02.787Z,4.55
2017-05-28T08:55:31.599Z,4.20
2017-05-28T08:58:00.460Z,4.62
2017-05-28T09:00:29.290Z,4.88
2017-05-28T09:02:58.103Z,5.50
2017-05-28T09:05:26.956Z,5.12
2017-05-28T09:07:55.780Z,4.88
2017-05-28T09:10:24.599Z,5.03
2017-05-28T09:12:53.456Z,4.88
2017-05-28T09:15:22.297Z,5.48
2017-05-28T09:17:51.106Z,4.40
2017-05-28T09:20:19.938Z,4.45
2017-05-28T09:22:48.750Z,4.35
2017-05-28T09:25:17.604Z,4.67
2017-05-28T09:27:46.427Z,4.83
2017-05-28T09:30:15.243Z,5.12
2017-05-28T09:32:44.107Z,4.97
2017-05-28T09:35:12.932Z,4.45
2017-05-28T09:37:41.743Z,4.07
2017-05-28T09:40:10.619Z,4.62
2017-05-28T09:42:39.434Z,3.80
2017-05-28T09:45:08.256Z,4.23
2017-05-28T09:47:37.111Z,4.53
2017-05-28T09:50:05.984Z,4.75
2017-05-28T09:52:34.792Z,4.52
2017-05-28T09:55:03.706Z,4.62
2017-05-28T09:57:32.519Z,4.78
2017-05-28T10:00:01.339Z,4.53
2017-05-28T10:02:30.173Z,4.53
2017-05-28T10:04:59.071Z,4.22
2017-05-28T10:07:27.876Z,4.77
2017-05-28T10:09:56.705Z,4.20
2017-05-28T10:12:25.567Z,4.65
2017-05-28T10:14:54.485Z,4.67
2017-05-28T10:17:23.282Z,4.80
2017-05-28T10:19:52.120Z,4.55
2017-05-28T10:22:20.973Z,4.80
2017-05-28T10:24:49.833Z,4.57
2017-05-28T10:27:18.720Z,4.67
2017-05-28T10:29:47.556Z,3.98
2017-05-28T10:32:16.412Z,4.28
2017-05-28T10:34:45.241Z,3.92
2017-05-28T10:37:14.051Z,5.07
2017-05-28T10:39:42.933Z,4.02
2017-05-28T10:42:11.763Z,4.58
2017-05-28T10:44:40.624Z,4.23
2017-05-28T10:47:09.492Z,4.45
2017-05-28T10:49:38.333Z,4.25
2017-05-28T10:52:07.149Z,4.30
2017-05-28T10:54:36.013Z,4.33
2017-05-28T10:57:04.841Z,4.47
2017-05-28T10:59:33.664Z,4.22
2017-05-28T11:02:02.522Z,4.22
2017-05-28T11:04:31.343Z,4.12
2017-05-28T11:07:00.219Z,3.50
2017-05-28T11:09:28.285Z,3.82
2017-05-28T11:11:57.127Z,3.70
2017-05-28T11:14:25.968Z,3.95
2017-05-28T11:16:54.783Z,3.65
2017-05-28T11:19:23.609Z,3.90
2017-05-28T11:21:53.025Z,4.15
2017-05-28T11:24:21.856Z,3.48
2017-05-28T11:26:50.674Z,3.90
2017-05-28T11:29:19.599Z,3.42
2017-05-28T11:31:48.435Z,3.65
2017-05-28T11:34:17.246Z,3.75
2017-05-28T11:36:46.139Z,4.12
2017-05-28T11:39:14.923Z,3.38
2017-05-28T11:41:43.757Z,3.18
2017-05-28T11:44:12.595Z,3.40
2017-05-28T11:46:41.407Z,3.33
2017-05-28T11:49:10.259Z,3.92
2017-05-28T11:51:39.093Z,3.13
2017-05-28T11:54:07.904Z,3.07
2017-05-28T11:56:36.764Z,3.57
2017-05-28T11:59:05.535Z,3.00
2017-05-28T12:01:34.381Z,2.82
2017-05-28T12:04:03.206Z,3.28
2017-05-28T12:06:32.067Z,3.28
2017-05-28T12:09:00.925Z,3.27
2017-05-28T12:11:29.735Z,3.32
2017-05-28T12:13:58.990Z,2.80
2017-05-28T12:16:27.788Z,3.65
2017-05-28T12:18:56.619Z,3.02
2017-05-28T12:21:25.456Z,3.15
2017-05-28T12:23:54.323Z,6.20
2017-05-28T12:26:23.135Z,6.32
2017-05-28T12:28:51.946Z,3.10
2017-05-28T12:31:20.816Z,10.82
2017-05-28T12:33:49.658Z,2.98
2017-05-28T12:36:18.487Z,3.13
2017-05-28T12:38:47.316Z,3.30
2017-05-28T12:41:16.143Z,3.35
2017-05-28T12:43:45.065Z,3.48
2017-05-28T12:46:13.882Z,3.53
2017-05-28T12:48:42.707Z,2.93
2017-05-28T12:51:11.547Z,3.13
2017-05-28T12:53:40.411Z,3.32
2017-05-28T12:56:09.183Z,2.80
2017-05-28T12:58:38.032Z,3.37
2017-05-28T13:01:06.871Z,3.70
2017-05-28T13:03:35.683Z,3.32
2017-05-28T13:06:04.499Z,2.72
2017-05-28T13:08:33.371Z,3.78
2017-05-28T13:11:02.199Z,3.62
2017-05-28T13:13:31.020Z,2.92
2017-05-28T13:15:59.849Z,3.52
2017-05-28T13:18:28.682Z,5.10
2017-05-28T13:20:57.511Z,4.37
2017-05-28T13:23:26.388Z,2.77
2017-05-28T13:25:55.240Z,4.97
2017-05-28T13:28:24.047Z,3.23
2017-05-28T13:30:52.929Z,2.98
2017-05-28T13:33:21.761Z,3.43
2017-05-28T13:35:50.585Z,3.77
2017-05-28T13:38:19.407Z,2.80
2017-05-28T13:40:48.215Z,3.68
2017-05-28T13:43:17.064Z,3.32
2017-05-28T13:45:45.896Z,3.15
2017-05-28T13:48:14.715Z,3.68
2017-05-28T13:50:43.598Z,3.17
2017-05-28T13:53:12.451Z,3.68
2017-05-28T13:55:41.270Z,3.13
2017-05-28T13:58:10.102Z,3.53
2017-05-28T14:00:38.911Z,3.03
2017-05-28T14:03:07.746Z,2.95
2017-05-28T14:05:36.608Z,3.10
2017-05-28T14:08:05.424Z,2.98
2017-05-28T14:10:34.236Z,3.20
2017-05-28T14:13:03.083Z,2.80
2017-05-28T14:15:31.924Z,2.92
2017-05-28T14:18:00.757Z,3.40
2017-05-28T14:20:29.603Z,3.02
2017-05-28T14:22:58.427Z,2.77
2017-05-28T14:25:27.244Z,3.10
2017-05-28T14:27:56.107Z,2.83
2017-05-28T14:30:24.906Z,2.80
2017-05-28T14:32:53.723Z,3.65
2017-05-28T14:35:22.570Z,3.45
2017-05-28T14:37:51.444Z,3.48
2017-05-28T14:40:20.303Z,3.47
2017-05-28T14:42:49.211Z,3.50
2017-05-28T14:45:18.083Z,2.77
2017-05-28T14:47:46.964Z,3.18
2017-05-28T14:50:15.754Z,2.80
2017-05-28T14:52:44.624Z,2.95
2017-05-28T14:55:13.417Z,3.50
2017-05-28T14:57:42.223Z,3.62
2017-05-28T15:00:11.059Z,3.18
2017-05-28T15:02:39.875Z,3.02
2017-05-28T15:05:08.728Z,3.10
2017-05-28T15:07:37.539Z,3.17
2017-05-28T15:10:06.361Z,3.17
2017-05-28T15:12:35.202Z,3.00
2017-05-28T15:15:04.024Z,2.90
2017-05-28T15:17:32.871Z,3.22
2017-05-28T15:20:01.720Z,3.25
2017-05-28T15:22:30.531Z,2.95
2017-05-28T15:24:59.409Z,3.27
2017-05-28T15:27:28.219Z,3.13
2017-05-28T15:29:57.074Z,2.65
2017-05-28T15:32:25.916Z,3.08
2017-05-28T15:34:54.786Z,2.97
2017-05-28T15:37:23.604Z,2.40
2017-05-28T15:39:52.431Z,2.88
2017-05-28T15:42:21.263Z,3.40
2017-05-28T15:44:50.105Z,3.00
2017-05-28T15:47:18.936Z,2.75
2017-05-28T15:49:47.747Z,3.12
2017-05-28T15:52:16.592Z,3.55
2017-05-28T15:54:45.413Z,2.80
2017-05-28T15:57:14.251Z,3.43
2017-05-28T15:59:43.094Z,3.17
2017-05-28T16:02:11.950Z,3.22
2017-05-28T16:04:40.811Z,3.00
2017-05-28T16:07:09.741Z,2.73
2017-05-28T16:09:38.706Z,3.37
2017-05-28T16:12:07.568Z,3.38
2017-05-28T16:14:36.342Z,3.40
2017-05-28T16:17:05.186Z,3.00
2017-05-28T16:19:34.018Z,3.58
2017-05-28T16:22:02.842Z,2.93
2017-05-28T16:24:31.671Z,3.57
2017-05-28T16:27:00.516Z,3.45
2017-05-28T16:29:29.354Z,3.97
2017-05-28T16:31:58.211Z,3.60
2017-05-28T16:34:27.017Z,3.55
2017-05-28T16:36:55.859Z,3.58
2017-05-28T16:39:24.682Z,3.72
2017-05-28T16:41:53.491Z,3.25
2017-05-28T16:44:22.331Z,2.92
2017-05-28T16:46:51.148Z,3.63
2017-05-28T16:49:19.963Z,3.72
2017-05-28T16:51:48.805Z,3.88
2017-05-28T16:54:17.644Z,3.93
2017-05-28T16:56:46.458Z,4.27
2017-05-28T16:59:15.288Z,2.98
2017-05-28T17:01:44.119Z,3.40
2017-05-28T17:04:12.950Z,3.67
2017-05-28T17:06:41.803Z,4.40
2017-05-28T17:09:10.623Z,5.20
2017-05-28T17:11:39.453Z,4.77
2017-05-28T17:14:08.321Z,4.22
2017-05-28T17:16:37.125Z,3.90
2017-05-28T17:19:05.940Z,3.48
2017-05-28T17:21:34.794Z,3.38
2017-05-28T17:24:03.620Z,3.15
2017-05-28T17:26:32.462Z,3.27
2017-05-28T17:29:01.295Z,3.40
2017-05-28T17:31:30.107Z,3.90
2017-05-28T17:33:58.948Z,3.47
2017-05-28T17:36:27.761Z,3.42
2017-05-28T17:38:56.658Z,3.87
2017-05-28T17:41:25.474Z,3.88
2017-05-28T17:43:54.332Z,3.90
2017-05-28T17:46:23.153Z,3.80
2017-05-28T17:48:51.975Z,4.37
2017-05-28T17:51:20.817Z,3.92
2017-05-28T17:53:49.637Z,4.27
2017-05-28T17:56:18.457Z,4.62
2017-05-28T17:58:47.387Z,4.70
2017-05-28T18:01:16.197Z,4.88
2017-05-28T18:03:45.090Z,4.60
2017-05-28T18:06:13.982Z,4.52
2017-05-28T18:08:42.867Z,5.17
2017-05-28T18:11:11.655Z,3.82
2017-05-28T18:13:40.550Z,3.92
2017-05-28T18:16:09.382Z,3.90
2017-05-28T18:18:38.201Z,4.08
2017-05-28T18:21:07.129Z,3.78
2017-05-28T18:23:35.931Z,4.53
2017-05-28T18:26:05.720Z,4.40
2017-05-28T18:28:34.544Z,4.77
2017-05-28T18:31:03.364Z,4.28
2017-05-28T18:33:32.256Z,4.33
2017-05-28T18:36:01.067Z,4.22
2017-05-28T18:38:29.879Z,3.93
2017-05-28T18:40:58.731Z,4.60
2017-05-28T18:43:27.741Z,4.75
2017-05-28T18:45:56.575Z,4.45
2017-05-28T18:48:25.418Z,5.08
2017-05-28T18:50:54.389Z,4.92
2017-05-28T18:53:23.184Z,6.62
2017-05-28T18:55:52.023Z,5.82
2017-05-28T18:58:20.844Z,5.02
2017-05-28T19:00:49.666Z,5.07
2017-05-28T19:03:18.543Z,3.82
2017-05-28T19:05:47.374Z,4.77
2017-05-28T19:08:16.194Z,5.38
2017-05-28T19:10:45.056Z,4.58
2017-05-28T19:13:13.872Z,4.37
2017-05-28T19:15:42.745Z,4.07
2017-05-28T19:18:11.583Z,3.25
2017-05-28T19:20:40.399Z,4.07
2017-05-28T19:23:08.484Z,3.58
2017-05-28T19:25:37.311Z,3.60
2017-05-28T19:28:06.132Z,3.38
2017-05-28T19:30:34.963Z,3.08
2017-05-28T19:35:32.097Z,2.70
2017-05-28T19:38:00.903Z,3.10
2017-05-28T19:40:29.739Z,3.08
2017-05-28T19:42:58.555Z,3.50
2017-05-28T19:45:27.367Z,4.35
2017-05-28T19:47:56.212Z,3.02
2017-05-28T19:50:25.027Z,2.63
2017-05-28T19:52:53.893Z,3.20
2017-05-28T19:55:22.753Z,2.92
2017-05-28T19:57:51.556Z,2.82
2017-05-28T20:00:20.409Z,3.00
2017-05-28T20:02:49.249Z,2.12
2017-05-28T20:05:18.044Z,2.08
2017-05-28T20:07:46.915Z,2.32
2017-05-28T20:10:15.715Z,1.98
2017-05-28T20:12:44.527Z,2.38
2017-05-28T20:15:13.365Z,1.97
2017-05-28T20:20:10.439Z,3.08
2017-05-28T20:22:39.333Z,2.38
2017-05-28T20:25:08.131Z,2.45
2017-05-28T20:27:36.944Z,2.40
2017-05-28T20:30:05.784Z,1.76
2017-05-28T21:56:47.668Z,2.80
2017-05-28T21:59:16.550Z,2.52
2017-05-28T22:01:45.405Z,3.12
2017-05-28T22:04:14.281Z,3.00
2017-05-28T22:09:11.418Z,2.88
2017-05-28T22:11:40.239Z,2.63
2017-05-28T22:14:09.112Z,2.77
2017-05-28T22:16:38.003Z,3.03
2017-05-28T22:19:06.895Z,3.37
2017-05-28T22:21:35.739Z,3.30
2017-05-28T22:24:04.559Z,3.20
2017-05-28T22:29:01.641Z,3.30
2017-05-28T22:33:58.803Z,3.32
2017-05-28T22:36:27.626Z,3.40
2017-05-28T22:38:56.445Z,3.20
2017-05-28T22:41:25.415Z,3.38
2017-05-28T22:43:54.771Z,3.03
2017-05-28T22:46:23.590Z,3.38
2017-05-28T22:48:52.463Z,3.44
2017-05-28T22:51:21.304Z,3.44
2017-05-28T22:53:50.144Z,3.48
2017-05-28T22:56:18.983Z,3.75
2017-05-28T22:58:47.962Z,3.35
2017-05-28T23:01:16.815Z,3.77
2017-05-28T23:03:45.707Z,3.25
2017-05-28T23:06:14.591Z,3.38
2017-05-28T23:08:43.489Z,3.15
2017-05-28T23:13:40.652Z,3.85
2017-05-28T23:33:27.455Z,4.72
2017-05-28T23:38:24.519Z,4.67
